createdAt,value
2023-05-02T00:00:11.470Z,94936.00
2023-05-02T00:01:11.436Z,94938.00
2023-05-02T00:02:11.496Z,94938.00
2023-05-02T00:03:11.482Z,94940.00
2023-05-02T00:04:11.521Z,94938.00
2023-05-02T00:05:11.416Z,94936.00
2023-05-02T00:06:11.463Z,94938.00
2023-05-02T00:07:11.412Z,94938.00
2023-05-02T00:08:11.392Z,94938.00
2023-05-02T00:09:11.392Z,94934.00
2023-05-02T00:10:11.461Z,94936.00
2023-05-02T00:11:11.429Z,94936.00
2023-05-02T00:12:11.458Z,94934.00
2023-05-02T00:13:11.492Z,94934.00
2023-05-02T00:14:11.485Z,94930.00
2023-05-02T00:15:11.501Z,94928.00
2023-05-02T00:16:11.529Z,94930.00
2023-05-02T00:17:11.613Z,94930.00
2023-05-02T00:18:11.669Z,94926.00
2023-05-02T00:19:11.598Z,94928.00
2023-05-02T00:20:11.552Z,94928.00
2023-05-02T00:21:11.582Z,94928.00
2023-05-02T00:22:11.608Z,94926.00
2023-05-02T00:23:11.605Z,94923.00
2023-05-02T00:24:11.664Z,94926.00
2023-05-02T00:25:11.733Z,94926.00
2023-05-02T00:26:11.671Z,94926.00
2023-05-02T00:27:11.686Z,94923.00
2023-05-02T00:28:11.714Z,94923.00
2023-05-02T00:29:11.769Z,94924.00
2023-05-02T00:30:11.718Z,94921.00
2023-05-02T00:31:11.882Z,94923.00
2023-05-02T00:32:11.784Z,94923.00
2023-05-02T00:33:11.836Z,94919.00
2023-05-02T00:34:11.784Z,94917.00
2023-05-02T00:35:11.830Z,94919.00
2023-05-02T00:36:11.843Z,94919.00
2023-05-02T00:37:11.872Z,94919.00
2023-05-02T00:38:11.869Z,94919.00
2023-05-02T00:39:11.872Z,94919.00
2023-05-02T00:40:11.874Z,94919.00
2023-05-02T00:41:11.891Z,94917.00
2023-05-02T00:42:11.943Z,94921.00
2023-05-02T00:43:11.918Z,94921.00
2023-05-02T00:44:11.933Z,94921.00
2023-05-02T00:45:11.953Z,94921.00
2023-05-02T00:46:12.003Z,94919.00
2023-05-02T00:47:12.023Z,94921.00
2023-05-02T00:48:12.128Z,94921.00
2023-05-02T00:49:12.012Z,94923.00
2023-05-02T00:50:12.052Z,94919.00
2023-05-02T00:51:12.052Z,94923.00
2023-05-02T00:52:12.093Z,94923.00
2023-05-02T00:53:12.123Z,94919.00
2023-05-02T00:54:12.125Z,94919.00
2023-05-02T00:55:12.148Z,94919.00
2023-05-02T00:56:12.182Z,94919.00
2023-05-02T00:57:12.209Z,94919.00
2023-05-02T00:58:12.213Z,94919.00
2023-05-02T00:59:12.228Z,94923.00
2023-05-02T01:00:12.233Z,94923.00
2023-05-02T01:01:12.933Z,94923.00
2023-05-02T01:02:12.372Z,94923.00
2023-05-02T01:03:12.353Z,94924.00
2023-05-02T01:04:12.356Z,94926.00
2023-05-02T01:05:12.284Z,94926.00
2023-05-02T01:06:12.363Z,94926.00
2023-05-02T01:07:12.369Z,94930.00
2023-05-02T01:08:12.369Z,94932.00
2023-05-02T01:09:12.378Z,94930.00
2023-05-02T01:10:12.409Z,94930.00
2023-05-02T01:11:12.435Z,94934.00
2023-05-02T01:12:12.428Z,94932.00
2023-05-02T01:13:12.444Z,94932.00
2023-05-02T01:14:12.417Z,94934.00
2023-05-02T01:15:12.476Z,94932.00
2023-05-02T01:16:12.502Z,94934.00
2023-05-02T01:17:12.509Z,94934.00
2023-05-02T01:18:12.582Z,94934.00
2023-05-02T01:19:12.526Z,94936.00
2023-05-02T01:20:12.600Z,94936.00
2023-05-02T01:21:12.595Z,94936.00
2023-05-02T01:22:12.594Z,94940.00
2023-05-02T01:23:12.598Z,94940.00
2023-05-02T01:24:12.641Z,94938.00
2023-05-02T01:25:12.682Z,94942.00
2023-05-02T01:26:12.704Z,94942.00
2023-05-02T01:27:12.706Z,94944.00
2023-05-02T01:28:12.716Z,94944.00
2023-05-02T01:29:12.744Z,94942.00
2023-05-02T01:30:12.763Z,94946.00
2023-05-02T01:31:12.810Z,94944.00
2023-05-02T01:32:12.811Z,94948.00
2023-05-02T01:33:12.851Z,94948.00
2023-05-02T01:34:12.827Z,94946.00
2023-05-02T01:35:12.845Z,94946.00
2023-05-02T01:36:12.860Z,94946.00
2023-05-02T01:37:12.866Z,94946.00
2023-05-02T01:38:12.868Z,94946.00
2023-05-02T01:39:12.888Z,94948.00
2023-05-02T01:40:12.953Z,94946.00
2023-05-02T01:41:12.977Z,94948.00
2023-05-02T01:42:12.967Z,94950.00
2023-05-02T01:43:12.975Z,94948.00
2023-05-02T01:44:12.991Z,94948.00
2023-05-02T01:45:13.027Z,94948.00
2023-05-02T01:46:13.090Z,94948.00
2023-05-02T01:47:13.084Z,94948.00
2023-05-02T01:48:13.113Z,94948.00
2023-05-02T01:49:13.098Z,94946.00
2023-05-02T01:50:13.123Z,94948.00
2023-05-02T01:51:13.142Z,94950.00
2023-05-02T01:52:13.152Z,94946.00
2023-05-02T01:53:13.190Z,94952.00
2023-05-02T01:54:13.239Z,94952.00
2023-05-02T01:55:13.281Z,94952.00
2023-05-02T01:56:13.271Z,94952.00
2023-05-02T01:57:13.264Z,94952.00
2023-05-02T01:58:13.275Z,94952.00
2023-05-02T01:59:13.323Z,94952.00
2023-05-02T02:00:13.349Z,94954.00
2023-05-02T02:01:13.440Z,94954.00
2023-05-02T02:02:13.963Z,94952.00
2023-05-02T02:03:13.419Z,94954.00
2023-05-02T02:04:13.477Z,94954.00
2023-05-02T02:05:13.433Z,94954.00
2023-05-02T02:06:13.522Z,94956.00
2023-05-02T02:07:13.492Z,94956.00
2023-05-02T02:08:13.494Z,94958.00
2023-05-02T02:09:13.550Z,94956.00
2023-05-02T02:10:13.556Z,94958.00
2023-05-02T02:11:13.537Z,94958.00
2023-05-02T02:12:13.614Z,94958.00
2023-05-02T02:13:13.629Z,94958.00
2023-05-02T02:14:13.638Z,94958.00
2023-05-02T02:15:13.692Z,94956.00
2023-05-02T02:16:13.743Z,94956.00
2023-05-02T02:17:13.703Z,94954.00
2023-05-02T02:18:13.789Z,94956.00
2023-05-02T02:19:13.774Z,94956.00
2023-05-02T02:20:13.771Z,94956.00
2023-05-02T02:21:13.787Z,94952.00
2023-05-02T02:22:13.831Z,94952.00
2023-05-02T02:23:13.853Z,94952.00
2023-05-02T02:24:13.904Z,94956.00
2023-05-02T02:25:13.888Z,94954.00
2023-05-02T02:26:13.916Z,94956.00
2023-05-02T02:27:13.967Z,94954.00
2023-05-02T02:28:13.973Z,94956.00
2023-05-02T02:29:13.997Z,94956.00
2023-05-02T02:30:14.030Z,94958.00
2023-05-02T02:31:14.061Z,94958.00
2023-05-02T02:32:14.107Z,94958.00
2023-05-02T02:33:14.207Z,94958.00
2023-05-02T02:34:14.107Z,94958.00
2023-05-02T02:35:14.160Z,94958.00
2023-05-02T02:36:14.178Z,94958.00
2023-05-02T02:37:14.193Z,94958.00
2023-05-02T02:38:14.209Z,94960.00
2023-05-02T02:39:14.200Z,94958.00
2023-05-02T02:40:14.258Z,94962.00
2023-05-02T02:41:14.264Z,94962.00
2023-05-02T02:42:14.289Z,94962.00
2023-05-02T02:43:14.320Z,94962.00
2023-05-02T02:44:14.352Z,94964.00
2023-05-02T02:45:14.406Z,94966.00
2023-05-02T02:46:14.969Z,94966.00
2023-05-02T02:47:14.368Z,94964.00
2023-05-02T02:48:14.441Z,94966.00
2023-05-02T02:49:14.463Z,94966.00
2023-05-02T02:50:14.477Z,94968.00
2023-05-02T02:51:14.498Z,94966.00
2023-05-02T02:52:14.510Z,94970.00
2023-05-02T02:53:14.540Z,94970.00
2023-05-02T02:54:25.847Z,94970.00
2023-05-02T02:55:15.592Z,94971.00
2023-05-02T02:56:14.558Z,94968.00
2023-05-02T02:57:14.570Z,94970.00
2023-05-02T02:58:14.551Z,94971.00
2023-05-02T02:59:14.557Z,94968.00
2023-05-02T03:00:14.540Z,94971.00
2023-05-02T03:01:14.513Z,94970.00
2023-05-02T03:02:14.493Z,94970.00
2023-05-02T03:03:14.720Z,94971.00
2023-05-02T03:04:14.612Z,94970.00
2023-05-02T03:05:14.488Z,94971.00
2023-05-02T03:06:14.545Z,94970.00
2023-05-02T03:07:14.483Z,94970.00
2023-05-02T03:08:14.488Z,94971.00
2023-05-02T03:09:14.448Z,94971.00
2023-05-02T03:10:14.452Z,94971.00
2023-05-02T03:11:14.435Z,94973.00
2023-05-02T03:12:14.496Z,94971.00
2023-05-02T03:13:14.516Z,94971.00
2023-05-02T03:14:14.550Z,94973.00
2023-05-02T03:15:14.598Z,94975.00
2023-05-02T03:16:14.620Z,94973.00
2023-05-02T03:17:14.638Z,94975.00
2023-05-02T03:18:14.782Z,94973.00
2023-05-02T03:19:14.734Z,94973.00
2023-05-02T03:20:14.737Z,94973.00
2023-05-02T03:21:14.762Z,94973.00
2023-05-02T03:22:14.774Z,94975.00
2023-05-02T03:23:14.854Z,94975.00
2023-05-02T03:24:16.105Z,94977.00
2023-05-02T03:25:14.880Z,94977.00
2023-05-02T03:26:14.899Z,94979.00
2023-05-02T03:27:14.923Z,94981.00
2023-05-02T03:28:15.017Z,94975.00
2023-05-02T03:29:15.007Z,94975.00
2023-05-02T03:30:15.007Z,94975.00
2023-05-02T03:31:15.065Z,94983.00
2023-05-02T03:32:15.077Z,94975.00
2023-05-02T03:33:15.086Z,94977.00
2023-05-02T03:34:15.091Z,94979.00
2023-05-02T03:35:15.144Z,94979.00
2023-05-02T03:36:15.197Z,94981.00
2023-05-02T03:37:15.156Z,94983.00
2023-05-02T03:38:15.209Z,94985.00
2023-05-02T03:39:15.235Z,94983.00
2023-05-02T03:40:15.216Z,94985.00
2023-05-02T03:41:15.305Z,94989.00
2023-05-02T03:42:15.292Z,94987.00
2023-05-02T03:43:15.316Z,94989.00
2023-05-02T03:44:15.353Z,94991.00
2023-05-02T03:45:15.369Z,94991.00
2023-05-02T03:46:15.360Z,94989.00
2023-05-02T03:47:15.388Z,94991.00
2023-05-02T03:48:15.447Z,94991.00
2023-05-02T03:49:15.441Z,94989.00
2023-05-02T03:50:15.455Z,94991.00
2023-05-02T03:51:15.506Z,94995.00
2023-05-02T03:52:15.505Z,94995.00
2023-05-02T03:53:15.567Z,94997.00
2023-05-02T03:54:15.579Z,94993.00
2023-05-02T03:55:15.582Z,94995.00
2023-05-02T03:56:15.592Z,94999.00
2023-05-02T03:57:15.661Z,94997.00
2023-05-02T03:58:15.652Z,94997.00
2023-05-02T03:59:15.704Z,94997.00
2023-05-02T04:00:15.711Z,94997.00
2023-05-02T04:01:15.775Z,95001.00
2023-05-02T04:02:15.839Z,94999.00
2023-05-02T04:03:15.814Z,95001.00
2023-05-02T04:04:15.899Z,94997.00
2023-05-02T04:05:15.861Z,95001.00
2023-05-02T04:06:15.940Z,95005.00
2023-05-02T04:07:15.914Z,95005.00
2023-05-02T04:08:15.978Z,95003.00
2023-05-02T04:09:15.992Z,95007.00
2023-05-02T04:10:15.988Z,95005.00
2023-05-02T04:11:16.048Z,95009.00
2023-05-02T04:12:16.074Z,95011.00
2023-05-02T04:13:16.130Z,95011.00
2023-05-02T04:14:16.144Z,95013.00
2023-05-02T04:15:16.182Z,95013.00
2023-05-02T04:16:16.221Z,95015.00
2023-05-02T04:17:16.378Z,95015.00
2023-05-02T04:18:16.285Z,95017.00
2023-05-02T04:19:16.311Z,95015.00
2023-05-02T04:20:16.365Z,95017.00
2023-05-02T04:21:16.372Z,95020.00
2023-05-02T04:22:16.432Z,95018.00
2023-05-02T04:23:16.436Z,95022.00
2023-05-02T04:24:16.501Z,95018.00
2023-05-02T04:25:16.540Z,95020.00
2023-05-02T04:26:16.543Z,95020.00
2023-05-02T04:27:16.563Z,95022.00
2023-05-02T04:28:16.636Z,95022.00
2023-05-02T04:29:16.656Z,95024.00
2023-05-02T04:30:16.693Z,95028.00
2023-05-02T04:31:16.786Z,95030.00
2023-05-02T04:32:16.779Z,95028.00
2023-05-02T04:33:16.846Z,95032.00
2023-05-02T04:34:16.868Z,95032.00
2023-05-02T04:35:16.935Z,95032.00
2023-05-02T04:36:16.962Z,95032.00
2023-05-02T04:37:16.995Z,95034.00
2023-05-02T04:38:17.058Z,95036.00
2023-05-02T04:39:17.114Z,95040.00
2023-05-02T04:40:17.130Z,95040.00
2023-05-02T04:41:17.177Z,95040.00
2023-05-02T04:42:17.220Z,95042.00
2023-05-02T04:43:17.235Z,95042.00
2023-05-02T04:44:17.301Z,95042.00
2023-05-02T04:45:17.355Z,95042.00
2023-05-02T04:46:17.438Z,95046.00
2023-05-02T04:47:17.404Z,95046.00
2023-05-02T04:48:17.441Z,95048.00
2023-05-02T04:49:17.548Z,95046.00
2023-05-02T04:50:17.552Z,95048.00
2023-05-02T04:51:17.603Z,95050.00
2023-05-02T04:52:17.616Z,95048.00
2023-05-02T04:53:17.667Z,95048.00
2023-05-02T04:54:17.739Z,95048.00
2023-05-02T04:55:17.730Z,95050.00
2023-05-02T04:56:17.750Z,95050.00
2023-05-02T04:57:17.786Z,95052.00
2023-05-02T04:58:17.864Z,95052.00
2023-05-02T04:59:17.869Z,95052.00
2023-05-02T05:00:17.874Z,95054.00
2023-05-02T05:01:17.954Z,95058.00
2023-05-02T05:02:18.069Z,95058.00
2023-05-02T05:03:18.040Z,95060.00
2023-05-02T05:04:18.118Z,95060.00
2023-05-02T05:05:18.050Z,95060.00
2023-05-02T05:06:18.053Z,95062.00
2023-05-02T05:07:18.115Z,95060.00
2023-05-02T05:08:19.824Z,95064.00
2023-05-02T05:09:18.192Z,95065.00
2023-05-02T05:10:18.194Z,95064.00
2023-05-02T05:11:18.268Z,95065.00
2023-05-02T05:12:18.255Z,95067.00
2023-05-02T05:13:18.264Z,95069.00
2023-05-02T05:14:18.334Z,95071.00
2023-05-02T05:15:18.330Z,95071.00
2023-05-02T05:16:18.417Z,95073.00
2023-05-02T05:17:18.381Z,95073.00
2023-05-02T05:18:18.467Z,95073.00
2023-05-02T05:19:18.434Z,95075.00
2023-05-02T05:20:18.471Z,95077.00
2023-05-02T05:21:18.538Z,95079.00
2023-05-02T05:22:18.525Z,95077.00
2023-05-02T05:23:18.571Z,95079.00
2023-05-02T05:24:18.567Z,95079.00
2023-05-02T05:25:18.607Z,95081.00
2023-05-02T05:26:18.680Z,95081.00
2023-05-02T05:27:18.709Z,95081.00
2023-05-02T05:28:18.835Z,95085.00
2023-05-02T05:29:18.795Z,95085.00
2023-05-02T05:30:18.749Z,95085.00
2023-05-02T05:31:18.838Z,95085.00
2023-05-02T05:32:18.831Z,95087.00
2023-05-02T05:33:18.949Z,95087.00
2023-05-02T05:34:18.922Z,95087.00
2023-05-02T05:35:18.925Z,95087.00
2023-05-02T05:36:19.152Z,95093.00
2023-05-02T05:37:18.963Z,95093.00
2023-05-02T05:38:18.977Z,95097.00
2023-05-02T05:39:19.008Z,95095.00
2023-05-02T05:40:18.983Z,95095.00
2023-05-02T05:41:18.998Z,95097.00
2023-05-02T05:42:19.612Z,95099.00
2023-05-02T05:43:19.038Z,95101.00
2023-05-02T05:44:19.051Z,95103.00
2023-05-02T05:45:19.047Z,95103.00
2023-05-02T05:46:19.127Z,95105.00
2023-05-02T05:47:19.214Z,95105.00
2023-05-02T05:48:19.157Z,95107.00
2023-05-02T05:49:19.157Z,95107.00
2023-05-02T05:50:19.160Z,95107.00
2023-05-02T05:51:19.158Z,95107.00
2023-05-02T05:52:19.203Z,95109.00
2023-05-02T05:53:19.163Z,95109.00
2023-05-02T05:54:19.196Z,95111.00
2023-05-02T05:55:19.200Z,95112.00
2023-05-02T05:56:19.191Z,95114.00
2023-05-02T05:57:19.207Z,95114.00
2023-05-02T05:58:19.209Z,95114.00
2023-05-02T05:59:19.263Z,95112.00
2023-05-02T06:00:19.298Z,95114.00
2023-05-02T06:01:19.289Z,95116.00
2023-05-02T06:02:19.319Z,95116.00
2023-05-02T06:03:19.379Z,95116.00
2023-05-02T06:04:19.285Z,95118.00
2023-05-02T06:05:19.287Z,95116.00
2023-05-02T06:06:19.339Z,95118.00
2023-05-02T06:07:19.348Z,95120.00
2023-05-02T06:08:19.362Z,95120.00
2023-05-02T06:09:19.581Z,95120.00
2023-05-02T06:10:19.378Z,95120.00
2023-05-02T06:11:19.587Z,95126.00
2023-05-02T06:12:19.377Z,95126.00
2023-05-02T06:13:19.340Z,95126.00
2023-05-02T06:14:19.389Z,95128.00
2023-05-02T06:15:19.357Z,95132.00
2023-05-02T06:16:19.435Z,95134.00
2023-05-02T06:17:19.460Z,95134.00
2023-05-02T06:18:19.433Z,95136.00
2023-05-02T06:19:19.411Z,95138.00
2023-05-02T06:20:19.426Z,95138.00
2023-05-02T06:21:19.469Z,95140.00
2023-05-02T06:22:19.504Z,95138.00
2023-05-02T06:23:19.453Z,95138.00
2023-05-02T06:24:19.454Z,95144.00
2023-05-02T06:25:19.476Z,95144.00
2023-05-02T06:26:19.505Z,95144.00
2023-05-02T06:27:19.475Z,95144.00
2023-05-02T06:28:19.493Z,95144.00
2023-05-02T06:29:19.501Z,95146.00
2023-05-02T06:30:19.508Z,95146.00
2023-05-02T06:31:19.573Z,95146.00
2023-05-02T06:32:19.534Z,95148.00
2023-05-02T06:33:19.445Z,95150.00
2023-05-02T06:34:19.454Z,95150.00
2023-05-02T06:35:19.470Z,95150.00
2023-05-02T06:36:19.483Z,95160.00
2023-05-02T06:37:19.555Z,95162.00
2023-05-02T06:38:19.564Z,95160.00
2023-05-02T06:39:19.562Z,95164.00
2023-05-02T06:40:19.563Z,95166.00
2023-05-02T06:41:19.600Z,95166.00
2023-05-02T06:42:19.547Z,95166.00
2023-05-02T06:43:20.083Z,95166.00
2023-05-02T06:44:19.595Z,95168.00
2023-05-02T06:45:19.593Z,95168.00
2023-05-02T06:46:20.210Z,95170.00
2023-05-02T06:47:20.129Z,95168.00
2023-05-02T06:48:19.845Z,95168.00
2023-05-02T06:49:19.761Z,95173.00
2023-05-02T06:50:19.696Z,95170.00
2023-05-02T06:51:19.882Z,95172.00
2023-05-02T06:52:19.775Z,95172.00
2023-05-02T06:53:19.750Z,95172.00
2023-05-02T06:54:19.757Z,95172.00
2023-05-02T06:55:19.764Z,95175.00
2023-05-02T06:56:19.779Z,95177.00
2023-05-02T06:57:19.791Z,95177.00
2023-05-02T06:58:19.773Z,95175.00
2023-05-02T06:59:19.813Z,95175.00
2023-05-02T07:00:19.801Z,95181.00
2023-05-02T07:01:19.835Z,95183.00
2023-05-02T07:02:19.813Z,95181.00
2023-05-02T07:03:19.827Z,95185.00
2023-05-02T07:04:19.812Z,95185.00
2023-05-02T07:05:19.791Z,95185.00
2023-05-02T07:06:19.844Z,95185.00
2023-05-02T07:07:19.808Z,95183.00
2023-05-02T07:08:19.804Z,95187.00
2023-05-02T07:09:19.804Z,95185.00
2023-05-02T07:10:20.073Z,95185.00
2023-05-02T07:11:19.819Z,95187.00
2023-05-02T07:12:20.170Z,95185.00
2023-05-02T07:13:20.549Z,95189.00
2023-05-02T07:14:20.096Z,95187.00
2023-05-02T07:15:19.921Z,95191.00
2023-05-02T07:16:20.170Z,95191.00
2023-05-02T07:17:19.868Z,95189.00
2023-05-02T07:18:20.064Z,95191.00
2023-05-02T07:19:20.086Z,95191.00
2023-05-02T07:20:19.888Z,95189.00
2023-05-02T07:21:19.869Z,95191.00
2023-05-02T07:22:20.190Z,95189.00
2023-05-02T07:23:20.107Z,95191.00
2023-05-02T07:24:20.069Z,95191.00
2023-05-02T07:25:20.175Z,95191.00
2023-05-02T07:26:19.874Z,95197.00
2023-05-02T07:27:19.880Z,95197.00
2023-05-02T07:28:20.124Z,95197.00
2023-05-02T07:29:20.104Z,95197.00
2023-05-02T07:30:20.090Z,95195.00
2023-05-02T07:31:19.848Z,95199.00
2023-05-02T07:32:19.876Z,95199.00
2023-05-02T07:33:19.886Z,95197.00
2023-05-02T07:34:19.869Z,95199.00
2023-05-02T07:35:19.792Z,95199.00
2023-05-02T07:36:19.858Z,95199.00
2023-05-02T07:37:19.878Z,95199.00
2023-05-02T07:38:19.850Z,95201.00
2023-05-02T07:39:19.806Z,95199.00
2023-05-02T07:40:19.869Z,95197.00
2023-05-02T07:41:20.185Z,95199.00
2023-05-02T07:42:19.884Z,95199.00
2023-05-02T07:43:19.932Z,95197.00
2023-05-02T07:44:19.941Z,95201.00
2023-05-02T07:45:20.140Z,95197.00
2023-05-02T07:46:20.081Z,95199.00
2023-05-02T07:47:20.115Z,95197.00
2023-05-02T07:48:20.137Z,95195.00
2023-05-02T07:49:20.061Z,95195.00
2023-05-02T07:50:20.175Z,95199.00
2023-05-02T07:51:20.110Z,95199.00
2023-05-02T07:52:21.135Z,95201.00
2023-05-02T07:53:20.595Z,95203.00
2023-05-02T07:54:20.208Z,95201.00
2023-05-02T07:55:20.309Z,95201.00
2023-05-02T07:56:20.283Z,95203.00
2023-05-02T07:57:20.406Z,95203.00
2023-05-02T07:58:20.617Z,95203.00
2023-05-02T07:59:20.364Z,95203.00
2023-05-02T08:00:20.412Z,95205.00
2023-05-02T08:01:20.433Z,95209.00
2023-05-02T08:02:20.469Z,95209.00
2023-05-02T08:03:20.584Z,95209.00
2023-05-02T08:04:20.680Z,95214.00
2023-05-02T08:05:20.565Z,95212.00
2023-05-02T08:06:20.509Z,95214.00
2023-05-02T08:07:20.826Z,95218.00
2023-05-02T08:08:20.490Z,95218.00
2023-05-02T08:09:20.490Z,95218.00
2023-05-02T08:10:20.582Z,95222.00
2023-05-02T08:11:21.896Z,95222.00
2023-05-02T08:12:20.600Z,95222.00
2023-05-02T08:13:20.546Z,95222.00
2023-05-02T08:14:20.585Z,95222.00
2023-05-02T08:15:20.548Z,95222.00
2023-05-02T08:16:20.674Z,95224.00
2023-05-02T08:17:20.716Z,95224.00
2023-05-02T08:18:20.598Z,95226.00
2023-05-02T08:19:20.596Z,95228.00
2023-05-02T08:20:20.595Z,95230.00
2023-05-02T08:21:22.307Z,95232.00
2023-05-02T08:22:20.683Z,95232.00
2023-05-02T08:23:21.197Z,95234.00
2023-05-02T08:24:20.626Z,95230.00
2023-05-02T08:25:20.809Z,95232.00
2023-05-02T08:26:20.701Z,95232.00
2023-05-02T08:27:20.744Z,95230.00
2023-05-02T08:28:20.758Z,95232.00
2023-05-02T08:29:21.133Z,95230.00
2023-05-02T08:30:20.863Z,95230.00
2023-05-02T08:31:20.891Z,95228.00
2023-05-02T08:32:20.935Z,95228.00
2023-05-02T08:33:20.971Z,95226.00
2023-05-02T08:34:21.002Z,95228.00
2023-05-02T08:35:21.063Z,95230.00
2023-05-02T08:36:21.137Z,95230.00
2023-05-02T08:37:21.171Z,95230.00
2023-05-02T08:38:21.184Z,95230.00
2023-05-02T08:39:21.248Z,95230.00
2023-05-02T08:40:33.641Z,95232.00
2023-05-02T08:41:22.253Z,95230.00
2023-05-02T08:42:21.249Z,95234.00
2023-05-02T08:43:21.632Z,95234.00
2023-05-02T08:44:21.235Z,95230.00
2023-05-02T08:45:21.231Z,95238.00
2023-05-02T08:46:22.384Z,95236.00
2023-05-02T08:47:21.428Z,95240.00
2023-05-02T08:48:21.251Z,95240.00
2023-05-02T08:49:21.189Z,95242.00
2023-05-02T08:50:21.341Z,95244.00
2023-05-02T08:51:21.347Z,95246.00
2023-05-02T08:52:21.307Z,95244.00
2023-05-02T08:53:21.651Z,95248.00
2023-05-02T08:54:21.450Z,95248.00
2023-05-02T08:55:21.252Z,95248.00
2023-05-02T08:56:21.306Z,95250.00
2023-05-02T08:57:21.299Z,95256.00
2023-05-02T08:58:21.353Z,95250.00
2023-05-02T08:59:21.275Z,95254.00
2023-05-02T09:00:21.395Z,95254.00
2023-05-02T09:01:21.335Z,95254.00
2023-05-02T09:02:21.351Z,95252.00
2023-05-02T09:03:23.357Z,95256.00
2023-05-02T09:04:21.691Z,95256.00
2023-05-02T09:05:21.413Z,95256.00
2023-05-02T09:06:21.434Z,95258.00
2023-05-02T09:07:21.439Z,95262.00
2023-05-02T09:08:21.494Z,95258.00
2023-05-02T09:09:21.620Z,95258.00
2023-05-02T09:10:21.749Z,95264.00
2023-05-02T09:11:21.710Z,95264.00
2023-05-02T09:12:21.756Z,95262.00
2023-05-02T09:13:21.795Z,95264.00
2023-05-02T09:14:21.971Z,95262.00
2023-05-02T09:15:21.950Z,95260.00
2023-05-02T09:16:22.547Z,95264.00
2023-05-02T09:17:22.163Z,95264.00
2023-05-02T09:18:22.057Z,95264.00
2023-05-02T09:19:22.063Z,95262.00
2023-05-02T09:20:23.033Z,95264.00
2023-05-02T09:21:22.659Z,95260.00
2023-05-02T09:22:22.260Z,95262.00
2023-05-02T09:23:22.293Z,95264.00
2023-05-02T09:24:22.320Z,95262.00
2023-05-02T09:25:22.317Z,95264.00
2023-05-02T09:26:22.353Z,95264.00
2023-05-02T09:27:22.658Z,95262.00
2023-05-02T09:28:23.004Z,95267.00
2023-05-02T09:29:22.474Z,95269.00
2023-05-02T09:30:22.483Z,95271.00
2023-05-02T09:31:37.395Z,95269.00
2023-05-02T09:32:23.737Z,95267.00
2023-05-02T09:33:22.619Z,95266.00
2023-05-02T09:34:22.646Z,95269.00
2023-05-02T09:35:22.480Z,95266.00
2023-05-02T09:36:22.556Z,95264.00
2023-05-02T09:37:22.417Z,95262.00
2023-05-02T09:38:22.433Z,95262.00
2023-05-02T09:39:22.750Z,95262.00
2023-05-02T09:40:22.673Z,95262.00
2023-05-02T09:41:22.417Z,95264.00
2023-05-02T09:42:22.433Z,95264.00
2023-05-02T09:43:22.434Z,95262.00
2023-05-02T09:44:22.387Z,95267.00
2023-05-02T09:45:22.387Z,95267.00
2023-05-02T09:46:22.438Z,95266.00
2023-05-02T09:47:22.395Z,95267.00
2023-05-02T09:48:22.328Z,95264.00
2023-05-02T09:49:22.373Z,95267.00
2023-05-02T09:50:22.387Z,95266.00
2023-05-02T09:51:22.627Z,95264.00
2023-05-02T09:52:22.345Z,95266.00
2023-05-02T09:53:22.288Z,95267.00
2023-05-02T09:54:22.292Z,95264.00
2023-05-02T09:55:22.331Z,95262.00
2023-05-02T09:56:23.354Z,95267.00
2023-05-02T09:57:22.315Z,95267.00
2023-05-02T09:58:22.331Z,95266.00
2023-05-02T09:59:22.274Z,95269.00
2023-05-02T10:00:22.278Z,95264.00
2023-05-02T10:01:22.266Z,95266.00
2023-05-02T10:02:22.294Z,95266.00
2023-05-02T10:03:22.257Z,95266.00
2023-05-02T10:04:22.295Z,95266.00
2023-05-02T10:05:22.228Z,95266.00
2023-05-02T10:06:22.291Z,95264.00
2023-05-02T10:07:22.234Z,95267.00
2023-05-02T10:08:22.195Z,95266.00
2023-05-02T10:09:22.193Z,95266.00
2023-05-02T10:10:22.173Z,95266.00
2023-05-02T10:11:22.218Z,95266.00
2023-05-02T10:12:22.177Z,95266.00
2023-05-02T10:13:22.168Z,95267.00
2023-05-02T10:14:22.173Z,95266.00
2023-05-02T10:15:22.190Z,95264.00
2023-05-02T10:16:22.236Z,95267.00
2023-05-02T10:17:22.146Z,95264.00
2023-05-02T10:18:22.143Z,95269.00
2023-05-02T10:19:22.107Z,95269.00
2023-05-02T10:20:22.132Z,95267.00
2023-05-02T10:21:22.113Z,95267.00
2023-05-02T10:22:22.127Z,95266.00
2023-05-02T10:23:22.130Z,95267.00
2023-05-02T10:24:22.151Z,95267.00
2023-05-02T10:25:22.128Z,95267.00
2023-05-02T10:26:22.112Z,95264.00
2023-05-02T10:27:22.164Z,95264.00
2023-05-02T10:28:22.158Z,95264.00
2023-05-02T10:29:22.111Z,95262.00
2023-05-02T10:30:22.074Z,95262.00
2023-05-02T10:31:22.116Z,95258.00
2023-05-02T10:32:22.056Z,95258.00
2023-05-02T10:33:22.052Z,95256.00
2023-05-02T10:34:22.029Z,95256.00
2023-05-02T10:35:22.062Z,95256.00
2023-05-02T10:36:22.016Z,95250.00
2023-05-02T10:37:22.018Z,95252.00
2023-05-02T10:38:23.447Z,95250.00
2023-05-02T10:39:22.223Z,95246.00
2023-05-02T10:40:22.267Z,95248.00
2023-05-02T10:41:22.327Z,95248.00
2023-05-02T10:42:22.369Z,95246.00
2023-05-02T10:43:22.372Z,95252.00
2023-05-02T10:44:22.379Z,95252.00
2023-05-02T10:45:22.494Z,95246.00
2023-05-02T10:46:23.483Z,95246.00
2023-05-02T10:47:22.414Z,95242.00
2023-05-02T10:48:22.422Z,95238.00
2023-05-02T10:49:22.399Z,95236.00
2023-05-02T10:50:22.380Z,95238.00
2023-05-02T10:51:22.376Z,95238.00
2023-05-02T10:52:22.319Z,95238.00
2023-05-02T10:53:22.387Z,95236.00
2023-05-02T10:54:22.350Z,95238.00
2023-05-02T10:55:22.366Z,95240.00
2023-05-02T10:56:22.360Z,95240.00
2023-05-02T10:57:22.315Z,95236.00
2023-05-02T10:58:22.317Z,95232.00
2023-05-02T10:59:22.327Z,95232.00
2023-05-02T11:00:22.351Z,95234.00
2023-05-02T11:01:22.420Z,95234.00
2023-05-02T11:02:22.391Z,95234.00
2023-05-02T11:03:22.294Z,95230.00
2023-05-02T11:04:22.285Z,95230.00
2023-05-02T11:05:22.263Z,95230.00
2023-05-02T11:06:22.284Z,95230.00
2023-05-02T11:07:22.306Z,95234.00
2023-05-02T11:08:23.323Z,95232.00
2023-05-02T11:09:22.385Z,95232.00
2023-05-02T11:10:22.457Z,95230.00
2023-05-02T11:11:22.519Z,95232.00
2023-05-02T11:12:22.519Z,95230.00
2023-05-02T11:13:22.686Z,95230.00
2023-05-02T11:14:22.562Z,95230.00
2023-05-02T11:15:22.611Z,95228.00
2023-05-02T11:16:22.703Z,95230.00
2023-05-02T11:17:22.705Z,95232.00
2023-05-02T11:18:22.676Z,95234.00
2023-05-02T11:19:22.704Z,95232.00
2023-05-02T11:20:22.715Z,95230.00
2023-05-02T11:21:23.148Z,95232.00
2023-05-02T11:22:22.751Z,95232.00
2023-05-02T11:23:23.208Z,95230.00
2023-05-02T11:24:22.800Z,95228.00
2023-05-02T11:25:23.155Z,95226.00
2023-05-02T11:26:22.780Z,95228.00
2023-05-02T11:27:22.776Z,95228.00
2023-05-02T11:28:22.835Z,95222.00
2023-05-02T11:29:22.836Z,95226.00
2023-05-02T11:30:22.890Z,95228.00
2023-05-02T11:31:23.045Z,95228.00
2023-05-02T11:32:23.121Z,95228.00
2023-05-02T11:33:22.990Z,95224.00
2023-05-02T11:34:23.002Z,95228.00
2023-05-02T11:35:23.088Z,95226.00
2023-05-02T11:36:23.097Z,95224.00
2023-05-02T11:37:23.109Z,95226.00
2023-05-02T11:38:23.144Z,95226.00
2023-05-02T11:39:23.201Z,95224.00
2023-05-02T11:40:23.278Z,95226.00
2023-05-02T11:41:23.262Z,95228.00
2023-05-02T11:42:23.332Z,95224.00
2023-05-02T11:43:23.379Z,95222.00
2023-05-02T11:44:23.415Z,95224.00